sensor_id;sensor_type;location;lat;lon;timestamp;temperature;humidity
28189;DHT22;15471;51.166;4.470;2023-03-26T00:27:37;8.60;99.90
28189;DHT22;15471;51.166;4.470;2023-03-26T00:52:58;8.90;99.90
28189;DHT22;15471;51.166;4.470;2023-03-26T00:55:30;9.00;99.90
28189;DHT22;15471;51.166;4.470;2023-03-26T00:58:06;9.10;99.90
28189;DHT22;15471;51.166;4.470;2023-03-26T01:01:10;9.10;99.90
28189;DHT22;15471;51.166;4.470;2023-03-26T01:03:42;9.10;99.90
28189;DHT22;15471;51.166;4.470;2023-03-26T01:06:21;9.10;99.90
28189;DHT22;15471;51.166;4.470;2023-03-26T01:09:03;9.10;99.90
28189;DHT22;15471;51.166;4.470;2023-03-26T01:11:34;9.00;99.90
28189;DHT22;15471;51.166;4.470;2023-03-26T03:04:57;8.70;99.90
28189;DHT22;15471;51.166;4.470;2023-03-26T03:07:30;8.70;99.90
28189;DHT22;15471;51.166;4.470;2023-03-26T03:10:00;8.60;99.90
28189;DHT22;15471;51.166;4.470;2023-03-26T03:12:55;8.60;99.90
28189;DHT22;15471;51.166;4.470;2023-03-26T03:15:30;8.70;99.90
28189;DHT22;15471;51.166;4.470;2023-03-26T03:18:00;8.70;99.90
28189;DHT22;15471;51.166;4.470;2023-03-26T03:20:39;8.70;99.90
28189;DHT22;15471;51.166;4.470;2023-03-26T03:23:07;8.70;99.90
28189;DHT22;15471;51.166;4.470;2023-03-26T03:25:34;8.70;99.90
28189;DHT22;15471;51.166;4.470;2023-03-26T03:28:03;8.70;99.90
28189;DHT22;15471;51.166;4.470;2023-03-26T03:30:31;8.60;99.90
28189;DHT22;15471;51.166;4.470;2023-03-26T03:33:13;8.70;99.90
28189;DHT22;15471;51.166;4.470;2023-03-26T03:35:45;8.60;99.90
28189;DHT22;15471;51.166;4.470;2023-03-26T03:38:19;8.60;99.90
28189;DHT22;15471;51.166;4.470;2023-03-26T03:40:48;8.60;99.90
28189;DHT22;15471;51.166;4.470;2023-03-26T03:43:18;8.60;99.90
28189;DHT22;15471;51.166;4.470;2023-03-26T03:46:01;8.60;99.90
28189;DHT22;15471;51.166;4.470;2023-03-26T03:48:48;8.60;99.90
28189;DHT22;15471;51.166;4.470;2023-03-26T03:51:23;8.50;99.90
28189;DHT22;15471;51.166;4.470;2023-03-26T03:53:52;8.50;99.90
28189;DHT22;15471;51.166;4.470;2023-03-26T03:56:46;8.50;99.90
28189;DHT22;15471;51.166;4.470;2023-03-26T03:59:28;8.50;99.90
28189;DHT22;15471;51.166;4.470;2023-03-26T04:01:54;8.40;99.90
28189;DHT22;15471;51.166;4.470;2023-03-26T04:04:36;8.40;99.90
28189;DHT22;15471;51.166;4.470;2023-03-26T04:07:04;8.40;99.90
28189;DHT22;15471;51.166;4.470;2023-03-26T04:09:51;8.40;99.90
28189;DHT22;15471;51.166;4.470;2023-03-26T04:12:22;8.40;99.90
28189;DHT22;15471;51.166;4.470;2023-03-26T04:15:02;8.40;99.90
28189;DHT22;15471;51.166;4.470;2023-03-26T04:17:29;8.40;99.90
28189;DHT22;15471;51.166;4.470;2023-03-26T04:19:57;8.40;99.90
28189;DHT22;15471;51.166;4.470;2023-03-26T04:22:30;8.40;99.90
28189;DHT22;15471;51.166;4.470;2023-03-26T04:25:02;8.40;99.90
28189;DHT22;15471;51.166;4.470;2023-03-26T04:27:43;8.40;99.90
28189;DHT22;15471;51.166;4.470;2023-03-26T04:30:17;8.40;99.90
28189;DHT22;15471;51.166;4.470;2023-03-26T04:32:50;8.40;99.90
28189;DHT22;15471;51.166;4.470;2023-03-26T04:35:17;8.40;99.90
28189;DHT22;15471;51.166;4.470;2023-03-26T04:37:50;8.40;99.90
28189;DHT22;15471;51.166;4.470;2023-03-26T04:40:32;8.40;99.90
28189;DHT22;15471;51.166;4.470;2023-03-26T04:43:02;8.30;99.90
28189;DHT22;15471;51.166;4.470;2023-03-26T04:45:47;8.40;99.90
28189;DHT22;15471;51.166;4.470;2023-03-26T04:48:16;8.30;99.90
28189;DHT22;15471;51.166;4.470;2023-03-26T04:50:43;8.30;99.90
28189;DHT22;15471;51.166;4.470;2023-03-26T04:53:21;8.30;99.90
28189;DHT22;15471;51.166;4.470;2023-03-26T04:59:31;8.30;99.90
28189;DHT22;15471;51.166;4.470;2023-03-26T05:02:13;8.30;99.90
28189;DHT22;15471;51.166;4.470;2023-03-26T05:44:33;8.30;99.90
28189;DHT22;15471;51.166;4.470;2023-03-26T05:47:39;8.30;99.90
28189;DHT22;15471;51.166;4.470;2023-03-26T05:50:07;8.30;99.90
28189;DHT22;15471;51.166;4.470;2023-03-26T05:52:37;8.30;99.90
28189;DHT22;15471;51.166;4.470;2023-03-26T05:55:51;8.30;99.90
28189;DHT22;15471;51.166;4.470;2023-03-26T05:59:21;8.30;99.90
28189;DHT22;15471;51.166;4.470;2023-03-26T06:02:34;8.30;99.90
28189;DHT22;15471;51.166;4.470;2023-03-26T06:05:20;8.30;99.90
28189;DHT22;15471;51.166;4.470;2023-03-26T06:08:03;8.30;99.90
28189;DHT22;15471;51.166;4.470;2023-03-26T06:10:39;8.30;99.90
28189;DHT22;15471;51.166;4.470;2023-03-26T06:13:06;8.30;99.90
28189;DHT22;15471;51.166;4.470;2023-03-26T06:15:37;8.30;99.90
28189;DHT22;15471;51.166;4.470;2023-03-26T06:18:16;8.30;99.90
28189;DHT22;15471;51.166;4.470;2023-03-26T06:20:53;8.30;99.90
28189;DHT22;15471;51.166;4.470;2023-03-26T06:23:44;8.30;99.90
28189;DHT22;15471;51.166;4.470;2023-03-26T06:26:33;8.30;99.90
28189;DHT22;15471;51.166;4.470;2023-03-26T06:29:22;8.30;99.90
28189;DHT22;15471;51.166;4.470;2023-03-26T06:32:07;8.30;99.90
28189;DHT22;15471;51.166;4.470;2023-03-26T06:34:43;8.30;99.90
28189;DHT22;15471;51.166;4.470;2023-03-26T06:37:10;8.20;99.90
28189;DHT22;15471;51.166;4.470;2023-03-26T06:39:46;8.20;99.90
28189;DHT22;15471;51.166;4.470;2023-03-26T06:42:23;8.20;99.90
28189;DHT22;15471;51.166;4.470;2023-03-26T06:45:15;8.20;99.90
28189;DHT22;15471;51.166;4.470;2023-03-26T06:48:08;8.20;99.90
28189;DHT22;15471;51.166;4.470;2023-03-26T06:51:00;8.20;99.90
28189;DHT22;15471;51.166;4.470;2023-03-26T06:54:07;8.20;99.90
28189;DHT22;15471;51.166;4.470;2023-03-26T06:56:55;8.20;99.90
28189;DHT22;15471;51.166;4.470;2023-03-26T06:59:24;8.10;99.90
28189;DHT22;15471;51.166;4.470;2023-03-26T07:02:12;8.10;99.90
28189;DHT22;15471;51.166;4.470;2023-03-26T07:05:01;8.10;99.90
28189;DHT22;15471;51.166;4.470;2023-03-26T07:07:47;8.10;99.90
28189;DHT22;15471;51.166;4.470;2023-03-26T07:10:43;8.10;99.90
28189;DHT22;15471;51.166;4.470;2023-03-26T07:13:30;8.00;99.90
28189;DHT22;15471;51.166;4.470;2023-03-26T07:16:29;8.00;99.90
28189;DHT22;15471;51.166;4.470;2023-03-26T07:19:18;8.00;99.90
28189;DHT22;15471;51.166;4.470;2023-03-26T07:21:49;8.00;99.90
28189;DHT22;15471;51.166;4.470;2023-03-26T07:24:55;8.10;99.90
28189;DHT22;15471;51.166;4.470;2023-03-26T07:40:19;8.20;99.90
28189;DHT22;15471;51.166;4.470;2023-03-26T07:47:47;8.20;99.90
28189;DHT22;15471;51.166;4.470;2023-03-26T07:51:23;8.20;99.90
28189;DHT22;15471;51.166;4.470;2023-03-26T08:19:35;8.40;99.90
28189;DHT22;15471;51.166;4.470;2023-03-26T09:29:14;8.60;99.90
28189;DHT22;15471;51.166;4.470;2023-03-26T09:34:55;8.70;99.90
28189;DHT22;15471;51.166;4.470;2023-03-26T09:40:19;8.70;99.90
28189;DHT22;15471;51.166;4.470;2023-03-26T10:11:55;8.70;99.90
28189;DHT22;15471;51.166;4.470;2023-03-26T10:14:45;8.90;99.90
28189;DHT22;15471;51.166;4.470;2023-03-26T10:20:14;8.70;99.90
28189;DHT22;15471;51.166;4.470;2023-03-26T10:33:53;8.80;99.90
28189;DHT22;15471;51.166;4.470;2023-03-26T10:36:30;8.70;99.90
28189;DHT22;15471;51.166;4.470;2023-03-26T10:48:00;8.40;99.90
28189;DHT22;15471;51.166;4.470;2023-03-26T10:50:48;8.50;99.90
28189;DHT22;15471;51.166;4.470;2023-03-26T10:56:37;8.60;99.90
28189;DHT22;15471;51.166;4.470;2023-03-26T10:58:55;8.60;99.90
28189;DHT22;15471;51.166;4.470;2023-03-26T11:10:10;8.80;99.90
28189;DHT22;15471;51.166;4.470;2023-03-26T11:12:55;8.80;99.90
28189;DHT22;15471;51.166;4.470;2023-03-26T11:15:23;8.90;99.90
28189;DHT22;15471;51.166;4.470;2023-03-26T11:18:15;9.10;99.90
28189;DHT22;15471;51.166;4.470;2023-03-26T11:20:50;9.30;99.90
28189;DHT22;15471;51.166;4.470;2023-03-26T11:23:30;9.30;99.90
28189;DHT22;15471;51.166;4.470;2023-03-26T11:26:15;9.20;99.90
28189;DHT22;15471;51.166;4.470;2023-03-26T11:28:53;9.00;99.90
28189;DHT22;15471;51.166;4.470;2023-03-26T11:31:51;9.00;99.90
28189;DHT22;15471;51.166;4.470;2023-03-26T11:34:29;9.10;99.90
28189;DHT22;15471;51.166;4.470;2023-03-26T11:37:00;9.10;99.90
28189;DHT22;15471;51.166;4.470;2023-03-26T11:39:53;9.30;99.90
28189;DHT22;15471;51.166;4.470;2023-03-26T11:42:25;9.20;99.90
28189;DHT22;15471;51.166;4.470;2023-03-26T11:45:17;9.30;99.90
28189;DHT22;15471;51.166;4.470;2023-03-26T11:51:36;9.20;99.90
28189;DHT22;15471;51.166;4.470;2023-03-26T11:54:05;9.30;99.90
28189;DHT22;15471;51.166;4.470;2023-03-26T11:59:22;9.90;99.90
28189;DHT22;15471;51.166;4.470;2023-03-26T12:04:38;10.10;99.90
28189;DHT22;15471;51.166;4.470;2023-03-26T12:10:00;10.00;99.90
28189;DHT22;15471;51.166;4.470;2023-03-26T12:12:40;10.00;99.90
28189;DHT22;15471;51.166;4.470;2023-03-26T12:15:29;10.00;99.90
28189;DHT22;15471;51.166;4.470;2023-03-26T12:18:22;10.00;99.90
28189;DHT22;15471;51.166;4.470;2023-03-26T12:21:08;10.00;99.90
28189;DHT22;15471;51.166;4.470;2023-03-26T12:24:02;9.90;99.90
28189;DHT22;15471;51.166;4.470;2023-03-26T12:26:42;9.80;99.90
28189;DHT22;15471;51.166;4.470;2023-03-26T12:29:17;9.90;99.90
28189;DHT22;15471;51.166;4.470;2023-03-26T12:32:03;10.10;99.90
28189;DHT22;15471;51.166;4.470;2023-03-26T12:34:54;10.00;99.90
28189;DHT22;15471;51.166;4.470;2023-03-26T12:37:38;10.00;99.90
28189;DHT22;15471;51.166;4.470;2023-03-26T12:40:28;10.00;99.90
28189;DHT22;15471;51.166;4.470;2023-03-26T12:43:19;10.00;99.90
28189;DHT22;15471;51.166;4.470;2023-03-26T12:45:57;10.10;99.90
28189;DHT22;15471;51.166;4.470;2023-03-26T12:48:47;10.10;99.90
28189;DHT22;15471;51.166;4.470;2023-03-26T12:51:47;10.00;99.90
28189;DHT22;15471;51.166;4.470;2023-03-26T13:00:57;9.10;99.90
28189;DHT22;15471;51.166;4.470;2023-03-26T13:07:22;8.90;99.90
28189;DHT22;15471;51.166;4.470;2023-03-26T13:19:30;8.70;99.90
28189;DHT22;15471;51.166;4.470;2023-03-26T13:24:45;8.50;99.90
28189;DHT22;15471;51.166;4.470;2023-03-26T13:30:35;8.50;99.90
28189;DHT22;15471;51.166;4.470;2023-03-26T13:39:00;8.40;99.90
28189;DHT22;15471;51.166;4.470;2023-03-26T13:47:12;8.20;99.90
28189;DHT22;15471;51.166;4.470;2023-03-26T13:49:56;8.20;99.90
28189;DHT22;15471;51.166;4.470;2023-03-26T13:55:44;8.20;99.90
28189;DHT22;15471;51.166;4.470;2023-03-26T14:01:26;8.70;99.90
28189;DHT22;15471;51.166;4.470;2023-03-26T14:12:15;9.50;99.90
28189;DHT22;15471;51.166;4.470;2023-03-26T14:15:09;9.60;99.90
28189;DHT22;15471;51.166;4.470;2023-03-26T14:18:19;9.60;99.90
28189;DHT22;15471;51.166;4.470;2023-03-26T14:40:15;8.60;99.90
28189;DHT22;15471;51.166;4.470;2023-03-26T14:52:49;8.50;99.90
28189;DHT22;15471;51.166;4.470;2023-03-26T14:55:40;8.50;99.90
28189;DHT22;15471;51.166;4.470;2023-03-26T15:33:04;8.10;99.90
28189;DHT22;15471;51.166;4.470;2023-03-26T15:42:33;8.30;99.90
28189;DHT22;15471;51.166;4.470;2023-03-26T16:09:54;8.20;99.90
28189;DHT22;15471;51.166;4.470;2023-03-26T16:16:17;8.40;99.90
28189;DHT22;15471;51.166;4.470;2023-03-26T16:22:03;8.20;99.90
28189;DHT22;15471;51.166;4.470;2023-03-26T16:24:38;8.20;99.90
28189;DHT22;15471;51.166;4.470;2023-03-26T16:32:44;8.10;99.90
28189;DHT22;15471;51.166;4.470;2023-03-26T16:38:15;8.20;99.90
28189;DHT22;15471;51.166;4.470;2023-03-26T16:46:25;8.20;99.90
28189;DHT22;15471;51.166;4.470;2023-03-26T16:49:04;8.20;99.90
28189;DHT22;15471;51.166;4.470;2023-03-26T16:54:22;8.00;99.90
28189;DHT22;15471;51.166;4.470;2023-03-26T17:13:31;8.00;99.90
28189;DHT22;15471;51.166;4.470;2023-03-26T17:16:46;8.00;99.90
28189;DHT22;15471;51.166;4.470;2023-03-26T17:19:45;7.90;99.90
28189;DHT22;15471;51.166;4.470;2023-03-26T17:22:42;7.90;99.90
28189;DHT22;15471;51.166;4.470;2023-03-26T17:25:43;7.80;99.90
28189;DHT22;15471;51.166;4.470;2023-03-26T17:32:50;7.70;99.90
28189;DHT22;15471;51.166;4.470;2023-03-26T17:35:47;7.70;99.90
28189;DHT22;15471;51.166;4.470;2023-03-26T17:41:47;7.60;99.90
28189;DHT22;15471;51.166;4.470;2023-03-26T17:44:26;7.60;99.90
28189;DHT22;15471;51.166;4.470;2023-03-26T17:46:57;7.60;99.90
28189;DHT22;15471;51.166;4.470;2023-03-26T17:49:26;7.60;99.90
28189;DHT22;15471;51.166;4.470;2023-03-26T17:54:47;7.60;99.90
28189;DHT22;15471;51.166;4.470;2023-03-26T17:57:39;7.50;99.90
28189;DHT22;15471;51.166;4.470;2023-03-26T18:00:42;7.50;99.90
28189;DHT22;15471;51.166;4.470;2023-03-26T18:03:31;7.40;99.90
28189;DHT22;15471;51.166;4.470;2023-03-26T18:06:09;7.20;99.90
28189;DHT22;15471;51.166;4.470;2023-03-26T18:08:53;7.20;99.90
28189;DHT22;15471;51.166;4.470;2023-03-26T18:14:47;7.20;99.90
28189;DHT22;15471;51.166;4.470;2023-03-26T18:17:22;7.10;99.90
28189;DHT22;15471;51.166;4.470;2023-03-26T18:20:31;7.10;99.90
28189;DHT22;15471;51.166;4.470;2023-03-26T18:23:08;7.00;99.90
28189;DHT22;15471;51.166;4.470;2023-03-26T18:25:36;6.90;99.90
28189;DHT22;15471;51.166;4.470;2023-03-26T18:28:05;6.90;99.90
28189;DHT22;15471;51.166;4.470;2023-03-26T18:30:44;6.90;99.90
28189;DHT22;15471;51.166;4.470;2023-03-26T18:33:23;6.90;99.90
28189;DHT22;15471;51.166;4.470;2023-03-26T18:35:53;6.90;99.90
28189;DHT22;15471;51.166;4.470;2023-03-26T18:38:35;6.90;99.90
28189;DHT22;15471;51.166;4.470;2023-03-26T18:41:03;6.90;99.90
28189;DHT22;15471;51.166;4.470;2023-03-26T18:43:34;6.90;99.90
28189;DHT22;15471;51.166;4.470;2023-03-26T18:46:02;6.90;99.90
28189;DHT22;15471;51.166;4.470;2023-03-26T18:48:28;6.90;99.90
28189;DHT22;15471;51.166;4.470;2023-03-26T18:51:02;6.90;99.90
28189;DHT22;15471;51.166;4.470;2023-03-26T18:53:34;6.80;99.90
28189;DHT22;15471;51.166;4.470;2023-03-26T18:56:17;6.80;99.90
28189;DHT22;15471;51.166;4.470;2023-03-26T18:58:50;6.80;99.90
28189;DHT22;15471;51.166;4.470;2023-03-26T19:01:20;6.80;99.90
28189;DHT22;15471;51.166;4.470;2023-03-26T19:03:56;6.70;99.90
28189;DHT22;15471;51.166;4.470;2023-03-26T19:06:42;6.70;99.90
28189;DHT22;15471;51.166;4.470;2023-03-26T19:09:16;6.70;99.90
28189;DHT22;15471;51.166;4.470;2023-03-26T19:15:10;6.60;99.90
28189;DHT22;15471;51.166;4.470;2023-03-26T19:17:51;6.70;99.90
28189;DHT22;15471;51.166;4.470;2023-03-26T19:20:58;6.60;99.90
28189;DHT22;15471;51.166;4.470;2023-03-26T19:23:41;6.50;99.90
28189;DHT22;15471;51.166;4.470;2023-03-26T19:26:24;6.50;99.90
28189;DHT22;15471;51.166;4.470;2023-03-26T19:28:57;6.60;99.90
28189;DHT22;15471;51.166;4.470;2023-03-26T19:31:39;6.50;99.90
28189;DHT22;15471;51.166;4.470;2023-03-26T19:37:29;6.50;99.90
28189;DHT22;15471;51.166;4.470;2023-03-26T19:40:20;6.50;99.90
28189;DHT22;15471;51.166;4.470;2023-03-26T19:42:50;6.50;99.90
28189;DHT22;15471;51.166;4.470;2023-03-26T19:45:24;6.40;99.90
28189;DHT22;15471;51.166;4.470;2023-03-26T19:48:32;6.40;99.90
28189;DHT22;15471;51.166;4.470;2023-03-26T19:51:05;6.20;99.90
28189;DHT22;15471;51.166;4.470;2023-03-26T19:53:51;6.20;99.90
28189;DHT22;15471;51.166;4.470;2023-03-26T19:56:21;6.10;99.90
28189;DHT22;15471;51.166;4.470;2023-03-26T19:59:14;6.00;99.90
28189;DHT22;15471;51.166;4.470;2023-03-26T20:01:40;5.90;99.90
28189;DHT22;15471;51.166;4.470;2023-03-26T20:04:16;5.90;99.90
28189;DHT22;15471;51.166;4.470;2023-03-26T20:06:51;5.90;99.90
28189;DHT22;15471;51.166;4.470;2023-03-26T20:09:22;5.90;99.90
28189;DHT22;15471;51.166;4.470;2023-03-26T20:11:52;6.00;99.90
28189;DHT22;15471;51.166;4.470;2023-03-26T20:14:43;6.00;99.90
28189;DHT22;15471;51.166;4.470;2023-03-26T20:17:18;6.00;99.90
28189;DHT22;15471;51.166;4.470;2023-03-26T20:20:03;6.00;99.90
28189;DHT22;15471;51.166;4.470;2023-03-26T20:22:34;6.00;99.90
28189;DHT22;15471;51.166;4.470;2023-03-26T20:25:21;6.00;99.90
28189;DHT22;15471;51.166;4.470;2023-03-26T20:27:48;6.00;99.90
28189;DHT22;15471;51.166;4.470;2023-03-26T20:30:35;6.00;99.90
28189;DHT22;15471;51.166;4.470;2023-03-26T20:33:23;6.00;99.90
28189;DHT22;15471;51.166;4.470;2023-03-26T20:35:54;6.00;99.90
28189;DHT22;15471;51.166;4.470;2023-03-26T20:38:23;6.00;99.90
28189;DHT22;15471;51.166;4.470;2023-03-26T20:40:52;6.00;99.90
28189;DHT22;15471;51.166;4.470;2023-03-26T20:43:27;6.00;99.90
28189;DHT22;15471;51.166;4.470;2023-03-26T20:45:59;6.00;99.90
28189;DHT22;15471;51.166;4.470;2023-03-26T20:48:30;6.00;99.90
28189;DHT22;15471;51.166;4.470;2023-03-26T20:51:02;6.00;99.90
28189;DHT22;15471;51.166;4.470;2023-03-26T20:53:44;6.00;99.90
28189;DHT22;15471;51.166;4.470;2023-03-26T20:56:19;6.00;99.90
28189;DHT22;15471;51.166;4.470;2023-03-26T20:58:50;6.00;99.90
28189;DHT22;15471;51.166;4.470;2023-03-26T21:01:25;6.10;99.90
28189;DHT22;15471;51.166;4.470;2023-03-26T21:03:52;6.10;99.90
28189;DHT22;15471;51.166;4.470;2023-03-26T21:06:55;6.00;99.90
28189;DHT22;15471;51.166;4.470;2023-03-26T21:09:27;6.00;99.90
28189;DHT22;15471;51.166;4.470;2023-03-26T21:12:28;6.00;99.90
28189;DHT22;15471;51.166;4.470;2023-03-26T21:15:04;6.00;99.90
28189;DHT22;15471;51.166;4.470;2023-03-26T21:17:59;6.00;99.90
28189;DHT22;15471;51.166;4.470;2023-03-26T21:20:28;6.00;99.90
28189;DHT22;15471;51.166;4.470;2023-03-26T21:26:29;6.00;99.90
28189;DHT22;15471;51.166;4.470;2023-03-26T21:28:58;6.00;99.90
28189;DHT22;15471;51.166;4.470;2023-03-26T21:31:24;6.00;99.90
28189;DHT22;15471;51.166;4.470;2023-03-26T21:34:05;5.90;99.90
28189;DHT22;15471;51.166;4.470;2023-03-26T21:36:37;5.90;99.90
28189;DHT22;15471;51.166;4.470;2023-03-26T21:39:09;5.90;99.90
28189;DHT22;15471;51.166;4.470;2023-03-26T21:41:44;5.70;99.90
28189;DHT22;15471;51.166;4.470;2023-03-26T21:44:13;5.70;99.90
28189;DHT22;15471;51.166;4.470;2023-03-26T21:46:56;5.60;99.90
28189;DHT22;15471;51.166;4.470;2023-03-26T21:49:23;5.50;99.90
28189;DHT22;15471;51.166;4.470;2023-03-26T21:51:51;5.50;99.90
28189;DHT22;15471;51.166;4.470;2023-03-26T21:54:25;5.40;99.90
28189;DHT22;15471;51.166;4.470;2023-03-26T22:00:16;5.30;99.90
28189;DHT22;15471;51.166;4.470;2023-03-26T22:03:06;5.30;99.90
28189;DHT22;15471;51.166;4.470;2023-03-26T22:06:00;5.20;99.90
28189;DHT22;15471;51.166;4.470;2023-03-26T22:08:38;5.10;99.90
28189;DHT22;15471;51.166;4.470;2023-03-26T22:11:09;5.10;99.90
28189;DHT22;15471;51.166;4.470;2023-03-26T22:13:36;5.10;99.90
28189;DHT22;15471;51.166;4.470;2023-03-26T22:16:08;5.00;99.90
28189;DHT22;15471;51.166;4.470;2023-03-26T22:18:37;5.00;99.90
28189;DHT22;15471;51.166;4.470;2023-03-26T22:21:34;4.90;99.90
28189;DHT22;15471;51.166;4.470;2023-03-26T22:24:06;4.90;99.90
28189;DHT22;15471;51.166;4.470;2023-03-26T22:26:36;4.80;99.90
28189;DHT22;15471;51.166;4.470;2023-03-26T22:29:05;4.80;99.90
28189;DHT22;15471;51.166;4.470;2023-03-26T22:31:31;4.80;99.90
28189;DHT22;15471;51.166;4.470;2023-03-26T22:33:59;4.80;99.90
28189;DHT22;15471;51.166;4.470;2023-03-26T22:36:27;4.70;99.90
28189;DHT22;15471;51.166;4.470;2023-03-26T22:38:54;4.70;99.90
28189;DHT22;15471;51.166;4.470;2023-03-26T22:41:23;4.70;99.90
28189;DHT22;15471;51.166;4.470;2023-03-26T22:43:52;4.80;99.90
28189;DHT22;15471;51.166;4.470;2023-03-26T22:46:20;4.80;99.90
28189;DHT22;15471;51.166;4.470;2023-03-26T22:48:46;4.90;99.90
28189;DHT22;15471;51.166;4.470;2023-03-26T22:51:18;4.90;99.90
28189;DHT22;15471;51.166;4.470;2023-03-26T22:53:44;4.90;99.90
28189;DHT22;15471;51.166;4.470;2023-03-26T22:56:10;4.90;99.90
28189;DHT22;15471;51.166;4.470;2023-03-26T22:58:39;5.00;99.90
28189;DHT22;15471;51.166;4.470;2023-03-26T23:01:11;5.00;99.90
28189;DHT22;15471;51.166;4.470;2023-03-26T23:03:40;5.10;99.90
28189;DHT22;15471;51.166;4.470;2023-03-26T23:06:08;5.00;99.90
28189;DHT22;15471;51.166;4.470;2023-03-26T23:08:37;5.10;99.90
28189;DHT22;15471;51.166;4.470;2023-03-26T23:11:09;5.10;99.90
28189;DHT22;15471;51.166;4.470;2023-03-26T23:13:35;5.10;99.90
28189;DHT22;15471;51.166;4.470;2023-03-26T23:16:01;5.10;99.90
28189;DHT22;15471;51.166;4.470;2023-03-26T23:18:28;5.10;99.90
28189;DHT22;15471;51.166;4.470;2023-03-26T23:20:55;5.10;99.90
28189;DHT22;15471;51.166;4.470;2023-03-26T23:23:27;5.10;99.90
28189;DHT22;15471;51.166;4.470;2023-03-26T23:25:54;5.10;99.90
28189;DHT22;15471;51.166;4.470;2023-03-26T23:28:27;5.00;99.90
28189;DHT22;15471;51.166;4.470;2023-03-26T23:30:59;5.10;99.90
28189;DHT22;15471;51.166;4.470;2023-03-26T23:33:28;5.10;99.90
28189;DHT22;15471;51.166;4.470;2023-03-26T23:35:56;5.10;99.90
28189;DHT22;15471;51.166;4.470;2023-03-26T23:38:27;5.10;99.90
28189;DHT22;15471;51.166;4.470;2023-03-26T23:40:57;5.10;99.90
28189;DHT22;15471;51.166;4.470;2023-03-26T23:43:25;5.10;99.90
28189;DHT22;15471;51.166;4.470;2023-03-26T23:45:53;5.10;99.90
28189;DHT22;15471;51.166;4.470;2023-03-26T23:48:23;5.10;99.90
28189;DHT22;15471;51.166;4.470;2023-03-26T23:50:51;5.10;99.90
28189;DHT22;15471;51.166;4.470;2023-03-26T23:53:19;5.10;99.90
28189;DHT22;15471;51.166;4.470;2023-03-26T23:55:47;5.20;99.90
28189;DHT22;15471;51.166;4.470;2023-03-26T23:58:16;5.20;99.90
